Airfield :
LOGIN :

Register | Disclaimer

   EN    FR    IT 

 










Legend :    VFR   Marginal VFR   IFR   Intensive IFR   Very Intensive IFR
Visi :
Ceiling :
>= 8 km
>= 3000ft
5 to 8 km
1000 to 3000 ft
1500m to 5 km
500 to 1000 ft
800 to 1500m
200 to 500 ft
< 800m
< 200 ft
Symbols :   Thunderstorms  Fog  Heavy snow  Heavy precipitations  Wind > 20 kt
SIGMETs :     Misc.  Thunderstorms  Icing  Turbulence  Mountain Waves  Volcanic Ashes






- Airport Elevation : 45 ft
- IATA code : CEG


EGNR - Hawarden Chester

CURRENT METAR :
  • 030850Z 27009KT 240V310 9999 VCSH SCT023 SCT045 17/10 Q1019

EXPIRED METARs :
  • 030820Z 29007KT 240V320 9999 VCSH SCT019 SCT045 15/10 Q1019
  • 030750Z 29009KT 260V330 9999 VCSH SCT018 SCT046 15/11 Q1019
  • 030720Z 29007KT 250V340 9999 VCSH SCT015 SCT046 15/11 Q1018

TAF TAF EGNR
Valid from the 03 at 09:00 until the 03 at 18:00 UTC


030758Z 0309/0318 29009KT 9999 SCT020
TEMPO 0309/0312 BKN012
PROB30
TEMPO 0309/0316 7000 SHRA



MET'MAP, your aeronautical weather chart ! - Copyright ORBIFLY December 2007 - Disclaimer

ORBIFLY MET'MAP TEAM :

Programming & Development : Alexandra Zaïnal
Original concept : Baudouin d'Aumeries
Technical & hardware support : Manuel Goepfert
Assistance : Marc-Olivier Méhu




SOURCES & CREDITS :

   NOAA